sensor_id;sensor_type;location;lat;lon;timestamp;P1;durP1;ratioP1;P2;durP2;ratioP2
72621;SDS011;60665;53.506;9.582;2022-11-15T00:01:32;25.90;;;13.10;;
72621;SDS011;60665;53.506;9.582;2022-11-15T00:03:58;26.30;;;12.88;;
72621;SDS011;60665;53.506;9.582;2022-11-15T00:06:23;25.75;;;13.15;;
72621;SDS011;60665;53.506;9.582;2022-11-15T00:08:48;26.50;;;13.68;;
72621;SDS011;60665;53.506;9.582;2022-11-15T00:11:14;27.90;;;14.00;;
72621;SDS011;60665;53.506;9.582;2022-11-15T00:13:39;28.63;;;13.30;;
72621;SDS011;60665;53.506;9.582;2022-11-15T00:16:05;23.70;;;12.02;;
72621;SDS011;60665;53.506;9.582;2022-11-15T00:18:31;26.00;;;12.27;;
72621;SDS011;60665;53.506;9.582;2022-11-15T00:21:03;23.60;;;11.90;;
72621;SDS011;60665;53.506;9.582;2022-11-15T00:23:30;26.50;;;12.68;;
72621;SDS011;60665;53.506;9.582;2022-11-15T00:25:58;26.58;;;13.68;;
72621;SDS011;60665;53.506;9.582;2022-11-15T00:28:24;24.95;;;12.85;;
72621;SDS011;60665;53.506;9.582;2022-11-15T00:30:49;27.50;;;13.05;;
72621;SDS011;60665;53.506;9.582;2022-11-15T00:33:15;26.27;;;12.30;;
72621;SDS011;60665;53.506;9.582;2022-11-15T00:35:40;26.38;;;13.38;;
72621;SDS011;60665;53.506;9.582;2022-11-15T00:38:06;30.42;;;15.50;;
72621;SDS011;60665;53.506;9.582;2022-11-15T00:40:31;25.15;;;12.80;;
72621;SDS011;60665;53.506;9.582;2022-11-15T00:42:57;28.75;;;14.15;;
72621;SDS011;60665;53.506;9.582;2022-11-15T00:45:23;26.17;;;13.07;;
72621;SDS011;60665;53.506;9.582;2022-11-15T00:47:48;31.00;;;14.48;;
72621;SDS011;60665;53.506;9.582;2022-11-15T00:50:14;26.90;;;13.15;;
72621;SDS011;60665;53.506;9.582;2022-11-15T00:52:39;25.70;;;12.35;;
72621;SDS011;60665;53.506;9.582;2022-11-15T00:55:05;26.05;;;12.75;;
72621;SDS011;60665;53.506;9.582;2022-11-15T00:57:30;27.20;;;13.00;;
72621;SDS011;60665;53.506;9.582;2022-11-15T00:59:56;24.83;;;11.85;;
72621;SDS011;60665;53.506;9.582;2022-11-15T01:02:21;26.70;;;12.95;;
72621;SDS011;60665;53.506;9.582;2022-11-15T01:04:46;26.38;;;12.65;;
72621;SDS011;60665;53.506;9.582;2022-11-15T01:07:12;24.15;;;12.13;;
72621;SDS011;60665;53.506;9.582;2022-11-15T01:09:37;25.33;;;12.13;;
72621;SDS011;60665;53.506;9.582;2022-11-15T01:12:03;23.42;;;11.23;;
72621;SDS011;60665;53.506;9.582;2022-11-15T01:14:28;26.33;;;13.05;;
72621;SDS011;60665;53.506;9.582;2022-11-15T01:16:54;25.23;;;12.50;;
72621;SDS011;60665;53.506;9.582;2022-11-15T01:19:19;24.00;;;11.80;;
72621;SDS011;60665;53.506;9.582;2022-11-15T01:21:45;26.85;;;12.13;;
72621;SDS011;60665;53.506;9.582;2022-11-15T01:24:13;25.65;;;12.98;;
72621;SDS011;60665;53.506;9.582;2022-11-15T01:26:38;24.38;;;12.25;;
72621;SDS011;60665;53.506;9.582;2022-11-15T01:29:04;28.08;;;12.23;;
72621;SDS011;60665;53.506;9.582;2022-11-15T01:31:29;29.05;;;13.70;;
72621;SDS011;60665;53.506;9.582;2022-11-15T01:33:54;28.40;;;13.02;;
72621;SDS011;60665;53.506;9.582;2022-11-15T01:36:20;27.00;;;13.20;;
72621;SDS011;60665;53.506;9.582;2022-11-15T01:38:47;28.52;;;13.45;;
72621;SDS011;60665;53.506;9.582;2022-11-15T01:41:18;28.70;;;12.70;;
72621;SDS011;60665;53.506;9.582;2022-11-15T01:43:47;23.90;;;12.07;;
72621;SDS011;60665;53.506;9.582;2022-11-15T01:49:04;22.73;;;11.02;;
72621;SDS011;60665;53.506;9.582;2022-11-15T01:51:34;25.58;;;11.93;;
72621;SDS011;60665;53.506;9.582;2022-11-15T01:54:01;26.77;;;12.02;;
72621;SDS011;60665;53.506;9.582;2022-11-15T01:56:30;26.05;;;11.88;;
72621;SDS011;60665;53.506;9.582;2022-11-15T01:58:58;29.75;;;11.98;;
72621;SDS011;60665;53.506;9.582;2022-11-15T02:01:28;25.73;;;12.05;;
72621;SDS011;60665;53.506;9.582;2022-11-15T02:04:04;25.77;;;12.48;;
72621;SDS011;60665;53.506;9.582;2022-11-15T02:06:37;24.05;;;11.20;;
72621;SDS011;60665;53.506;9.582;2022-11-15T02:09:03;23.70;;;11.30;;
72621;SDS011;60665;53.506;9.582;2022-11-15T02:11:29;26.15;;;11.93;;
72621;SDS011;60665;53.506;9.582;2022-11-15T02:13:54;24.42;;;12.10;;
72621;SDS011;60665;53.506;9.582;2022-11-15T02:16:26;27.45;;;13.02;;
72621;SDS011;60665;53.506;9.582;2022-11-15T02:19:00;25.67;;;12.30;;
72621;SDS011;60665;53.506;9.582;2022-11-15T02:21:36;25.33;;;13.13;;
72621;SDS011;60665;53.506;9.582;2022-11-15T02:29:03;27.70;;;11.38;;
72621;SDS011;60665;53.506;9.582;2022-11-15T02:39:33;22.65;;;10.50;;
72621;SDS011;60665;53.506;9.582;2022-11-15T02:42:02;20.48;;;10.00;;
72621;SDS011;60665;53.506;9.582;2022-11-15T02:44:34;24.85;;;12.63;;
72621;SDS011;60665;53.506;9.582;2022-11-15T02:47:03;22.95;;;12.48;;
72621;SDS011;60665;53.506;9.582;2022-11-15T02:49:58;26.48;;;11.88;;
72621;SDS011;60665;53.506;9.582;2022-11-15T02:52:28;25.55;;;11.35;;
72621;SDS011;60665;53.506;9.582;2022-11-15T03:05:31;27.15;;;12.20;;
72621;SDS011;60665;53.506;9.582;2022-11-15T03:08:25;25.10;;;12.02;;
72621;SDS011;60665;53.506;9.582;2022-11-15T03:16:47;20.20;;;9.40;;
72621;SDS011;60665;53.506;9.582;2022-11-15T03:19:40;21.52;;;10.40;;
72621;SDS011;60665;53.506;9.582;2022-11-15T03:22:10;22.58;;;10.35;;
72621;SDS011;60665;53.506;9.582;2022-11-15T03:27:03;18.70;;;8.98;;
72621;SDS011;60665;53.506;9.582;2022-11-15T03:29:35;20.15;;;9.65;;
72621;SDS011;60665;53.506;9.582;2022-11-15T03:32:03;22.05;;;10.57;;
72621;SDS011;60665;53.506;9.582;2022-11-15T03:37:07;18.60;;;9.63;;
72621;SDS011;60665;53.506;9.582;2022-11-15T03:39:33;19.98;;;10.13;;
72621;SDS011;60665;53.506;9.582;2022-11-15T03:42:42;23.85;;;11.80;;
72621;SDS011;60665;53.506;9.582;2022-11-15T03:44:51;18.67;;;9.60;;
72621;SDS011;60665;53.506;9.582;2022-11-15T03:47:21;23.60;;;10.65;;
72621;SDS011;60665;53.506;9.582;2022-11-15T03:49:50;20.67;;;9.60;;
72621;SDS011;60665;53.506;9.582;2022-11-15T03:52:19;20.73;;;10.30;;
72621;SDS011;60665;53.506;9.582;2022-11-15T03:54:49;18.65;;;9.27;;
72621;SDS011;60665;53.506;9.582;2022-11-15T03:57:19;20.08;;;9.25;;
72621;SDS011;60665;53.506;9.582;2022-11-15T03:59:44;19.17;;;8.88;;
72621;SDS011;60665;53.506;9.582;2022-11-15T04:02:10;18.33;;;9.50;;
72621;SDS011;60665;53.506;9.582;2022-11-15T04:04:36;18.17;;;9.52;;
72621;SDS011;60665;53.506;9.582;2022-11-15T04:07:02;18.02;;;9.02;;
72621;SDS011;60665;53.506;9.582;2022-11-15T04:09:27;16.70;;;9.23;;
72621;SDS011;60665;53.506;9.582;2022-11-15T04:11:52;17.60;;;9.00;;
72621;SDS011;60665;53.506;9.582;2022-11-15T04:14:18;18.10;;;9.07;;
72621;SDS011;60665;53.506;9.582;2022-11-15T04:16:43;16.20;;;8.88;;
72621;SDS011;60665;53.506;9.582;2022-11-15T04:19:08;15.23;;;8.52;;
72621;SDS011;60665;53.506;9.582;2022-11-15T04:21:52;17.55;;;8.52;;
72621;SDS011;60665;53.506;9.582;2022-11-15T04:24:36;16.58;;;8.23;;
72621;SDS011;60665;53.506;9.582;2022-11-15T04:27:02;19.70;;;9.52;;
72621;SDS011;60665;53.506;9.582;2022-11-15T04:29:27;18.13;;;8.80;;
72621;SDS011;60665;53.506;9.582;2022-11-15T04:32:05;18.15;;;9.13;;
72621;SDS011;60665;53.506;9.582;2022-11-15T04:34:31;17.25;;;8.35;;
72621;SDS011;60665;53.506;9.582;2022-11-15T04:36:57;14.18;;;8.05;;
72621;SDS011;60665;53.506;9.582;2022-11-15T04:39:40;16.70;;;8.50;;
72621;SDS011;60665;53.506;9.582;2022-11-15T04:42:07;15.70;;;8.80;;
72621;SDS011;60665;53.506;9.582;2022-11-15T04:44:32;18.95;;;8.95;;
72621;SDS011;60665;53.506;9.582;2022-11-15T04:46:58;19.88;;;10.23;;
72621;SDS011;60665;53.506;9.582;2022-11-15T04:49:23;18.63;;;9.82;;
72621;SDS011;60665;53.506;9.582;2022-11-15T04:51:49;20.50;;;10.07;;
72621;SDS011;60665;53.506;9.582;2022-11-15T04:54:14;18.50;;;9.77;;
72621;SDS011;60665;53.506;9.582;2022-11-15T04:56:40;16.15;;;8.45;;
72621;SDS011;60665;53.506;9.582;2022-11-15T04:59:05;17.50;;;9.13;;
72621;SDS011;60665;53.506;9.582;2022-11-15T05:01:30;15.65;;;9.05;;
72621;SDS011;60665;53.506;9.582;2022-11-15T05:03:56;20.92;;;10.18;;
72621;SDS011;60665;53.506;9.582;2022-11-15T05:06:40;17.50;;;9.57;;
72621;SDS011;60665;53.506;9.582;2022-11-15T05:09:05;18.10;;;8.88;;
72621;SDS011;60665;53.506;9.582;2022-11-15T05:11:31;18.90;;;9.27;;
72621;SDS011;60665;53.506;9.582;2022-11-15T05:13:56;20.50;;;9.85;;
72621;SDS011;60665;53.506;9.582;2022-11-15T05:16:22;19.92;;;10.07;;
72621;SDS011;60665;53.506;9.582;2022-11-15T05:18:50;18.48;;;9.95;;
72621;SDS011;60665;53.506;9.582;2022-11-15T05:21:16;20.73;;;9.57;;
72621;SDS011;60665;53.506;9.582;2022-11-15T05:23:41;26.38;;;9.80;;
72621;SDS011;60665;53.506;9.582;2022-11-15T05:26:07;19.02;;;9.55;;
72621;SDS011;60665;53.506;9.582;2022-11-15T05:28:33;19.00;;;9.00;;
72621;SDS011;60665;53.506;9.582;2022-11-15T05:31:06;17.23;;;8.90;;
72621;SDS011;60665;53.506;9.582;2022-11-15T05:33:34;17.55;;;9.02;;
72621;SDS011;60665;53.506;9.582;2022-11-15T05:36:12;17.83;;;9.30;;
72621;SDS011;60665;53.506;9.582;2022-11-15T05:38:45;17.13;;;8.85;;
72621;SDS011;60665;53.506;9.582;2022-11-15T05:41:10;18.63;;;9.85;;
72621;SDS011;60665;53.506;9.582;2022-11-15T05:43:37;19.25;;;9.15;;
72621;SDS011;60665;53.506;9.582;2022-11-15T05:46:03;17.30;;;9.25;;
72621;SDS011;60665;53.506;9.582;2022-11-15T05:48:29;19.90;;;9.93;;
72621;SDS011;60665;53.506;9.582;2022-11-15T05:50:55;18.65;;;9.15;;
72621;SDS011;60665;53.506;9.582;2022-11-15T05:53:21;16.45;;;8.68;;
72621;SDS011;60665;53.506;9.582;2022-11-15T05:55:47;18.30;;;9.20;;
72621;SDS011;60665;53.506;9.582;2022-11-15T05:58:13;19.38;;;9.32;;
72621;SDS011;60665;53.506;9.582;2022-11-15T06:00:38;18.10;;;9.68;;
72621;SDS011;60665;53.506;9.582;2022-11-15T06:03:04;17.33;;;8.77;;
72621;SDS011;60665;53.506;9.582;2022-11-15T06:05:29;19.02;;;8.95;;
72621;SDS011;60665;53.506;9.582;2022-11-15T06:07:58;19.27;;;9.55;;
72621;SDS011;60665;53.506;9.582;2022-11-15T06:10:24;19.08;;;9.45;;
72621;SDS011;60665;53.506;9.582;2022-11-15T06:13:02;18.23;;;9.55;;
72621;SDS011;60665;53.506;9.582;2022-11-15T06:15:29;17.42;;;8.52;;
72621;SDS011;60665;53.506;9.582;2022-11-15T06:17:57;18.90;;;9.77;;
72621;SDS011;60665;53.506;9.582;2022-11-15T06:20:24;22.63;;;10.50;;
72621;SDS011;60665;53.506;9.582;2022-11-15T06:22:57;17.65;;;9.90;;
72621;SDS011;60665;53.506;9.582;2022-11-15T06:25:23;20.50;;;10.10;;
72621;SDS011;60665;53.506;9.582;2022-11-15T06:27:52;19.50;;;10.73;;
72621;SDS011;60665;53.506;9.582;2022-11-15T06:30:18;21.73;;;11.10;;
72621;SDS011;60665;53.506;9.582;2022-11-15T06:32:44;20.77;;;10.30;;
72621;SDS011;60665;53.506;9.582;2022-11-15T06:35:09;21.27;;;10.45;;
72621;SDS011;60665;53.506;9.582;2022-11-15T06:37:35;21.05;;;11.18;;
72621;SDS011;60665;53.506;9.582;2022-11-15T06:40:00;22.38;;;11.20;;
72621;SDS011;60665;53.506;9.582;2022-11-15T06:42:46;21.00;;;10.73;;
72621;SDS011;60665;53.506;9.582;2022-11-15T06:45:11;21.13;;;10.93;;
72621;SDS011;60665;53.506;9.582;2022-11-15T06:47:43;18.38;;;10.38;;
72621;SDS011;60665;53.506;9.582;2022-11-15T06:50:12;19.73;;;9.88;;
72621;SDS011;60665;53.506;9.582;2022-11-15T06:52:38;23.25;;;10.85;;
72621;SDS011;60665;53.506;9.582;2022-11-15T06:55:03;20.65;;;10.30;;
72621;SDS011;60665;53.506;9.582;2022-11-15T06:57:29;20.70;;;10.32;;
72621;SDS011;60665;53.506;9.582;2022-11-15T06:59:54;20.05;;;10.30;;
72621;SDS011;60665;53.506;9.582;2022-11-15T07:02:20;20.70;;;10.35;;
72621;SDS011;60665;53.506;9.582;2022-11-15T07:04:45;18.38;;;10.55;;
72621;SDS011;60665;53.506;9.582;2022-11-15T07:07:10;20.58;;;9.77;;
72621;SDS011;60665;53.506;9.582;2022-11-15T07:09:36;19.27;;;10.43;;
72621;SDS011;60665;53.506;9.582;2022-11-15T07:12:01;20.02;;;10.93;;
72621;SDS011;60665;53.506;9.582;2022-11-15T07:14:26;28.80;;;13.18;;
72621;SDS011;60665;53.506;9.582;2022-11-15T07:16:52;26.58;;;11.18;;
72621;SDS011;60665;53.506;9.582;2022-11-15T07:19:17;26.17;;;12.07;;
72621;SDS011;60665;53.506;9.582;2022-11-15T07:21:42;22.77;;;11.73;;
72621;SDS011;60665;53.506;9.582;2022-11-15T07:24:08;24.15;;;11.43;;
72621;SDS011;60665;53.506;9.582;2022-11-15T07:26:33;22.35;;;10.65;;
72621;SDS011;60665;53.506;9.582;2022-11-15T07:28:59;25.52;;;12.05;;
72621;SDS011;60665;53.506;9.582;2022-11-15T07:31:24;19.70;;;10.02;;
72621;SDS011;60665;53.506;9.582;2022-11-15T07:33:50;22.55;;;11.68;;
72621;SDS011;60665;53.506;9.582;2022-11-15T07:36:15;19.45;;;10.18;;
72621;SDS011;60665;53.506;9.582;2022-11-15T07:38:41;27.00;;;11.95;;
72621;SDS011;60665;53.506;9.582;2022-11-15T07:41:07;34.55;;;16.30;;
72621;SDS011;60665;53.506;9.582;2022-11-15T07:43:32;36.03;;;17.13;;
72621;SDS011;60665;53.506;9.582;2022-11-15T07:45:59;38.83;;;18.23;;
72621;SDS011;60665;53.506;9.582;2022-11-15T07:48:29;30.65;;;13.80;;
72621;SDS011;60665;53.506;9.582;2022-11-15T07:50:54;24.60;;;11.82;;
72621;SDS011;60665;53.506;9.582;2022-11-15T07:53:20;26.92;;;12.98;;
72621;SDS011;60665;53.506;9.582;2022-11-15T07:55:45;21.75;;;10.52;;
72621;SDS011;60665;53.506;9.582;2022-11-15T07:58:11;21.35;;;10.23;;
72621;SDS011;60665;53.506;9.582;2022-11-15T08:00:37;20.80;;;10.38;;
72621;SDS011;60665;53.506;9.582;2022-11-15T08:05:28;19.80;;;10.07;;
72621;SDS011;60665;53.506;9.582;2022-11-15T08:07:55;18.90;;;10.52;;
72621;SDS011;60665;53.506;9.582;2022-11-15T08:10:21;21.90;;;10.40;;
72621;SDS011;60665;53.506;9.582;2022-11-15T08:12:46;18.27;;;10.55;;
72621;SDS011;60665;53.506;9.582;2022-11-15T08:15:11;22.08;;;11.57;;
72621;SDS011;60665;53.506;9.582;2022-11-15T08:17:37;19.88;;;10.52;;
72621;SDS011;60665;53.506;9.582;2022-11-15T08:20:02;19.23;;;9.90;;
72621;SDS011;60665;53.506;9.582;2022-11-15T08:22:28;17.85;;;10.45;;
72621;SDS011;60665;53.506;9.582;2022-11-15T08:24:53;19.05;;;10.50;;
72621;SDS011;60665;53.506;9.582;2022-11-15T08:27:19;19.35;;;10.63;;
72621;SDS011;60665;53.506;9.582;2022-11-15T08:29:44;18.48;;;9.68;;
72621;SDS011;60665;53.506;9.582;2022-11-15T08:32:10;19.75;;;10.93;;
72621;SDS011;60665;53.506;9.582;2022-11-15T08:34:36;21.95;;;10.70;;
72621;SDS011;60665;53.506;9.582;2022-11-15T08:37:04;22.60;;;11.02;;
72621;SDS011;60665;53.506;9.582;2022-11-15T08:39:30;20.13;;;10.55;;
72621;SDS011;60665;53.506;9.582;2022-11-15T08:41:56;21.52;;;10.60;;
72621;SDS011;60665;53.506;9.582;2022-11-15T08:44:21;18.63;;;10.18;;
72621;SDS011;60665;53.506;9.582;2022-11-15T08:46:46;22.75;;;10.93;;
72621;SDS011;60665;53.506;9.582;2022-11-15T08:49:12;21.20;;;10.50;;
72621;SDS011;60665;53.506;9.582;2022-11-15T08:51:37;20.65;;;10.32;;
72621;SDS011;60665;53.506;9.582;2022-11-15T08:54:03;19.38;;;10.38;;
72621;SDS011;60665;53.506;9.582;2022-11-15T08:56:28;19.35;;;10.38;;
72621;SDS011;60665;53.506;9.582;2022-11-15T08:58:54;19.75;;;10.50;;
72621;SDS011;60665;53.506;9.582;2022-11-15T09:01:19;19.45;;;10.65;;
72621;SDS011;60665;53.506;9.582;2022-11-15T09:03:45;16.55;;;9.73;;
72621;SDS011;60665;53.506;9.582;2022-11-15T09:06:11;18.45;;;10.43;;
72621;SDS011;60665;53.506;9.582;2022-11-15T09:08:36;20.75;;;10.02;;
72621;SDS011;60665;53.506;9.582;2022-11-15T09:11:03;20.27;;;9.93;;
72621;SDS011;60665;53.506;9.582;2022-11-15T09:13:32;24.38;;;10.07;;
72621;SDS011;60665;53.506;9.582;2022-11-15T09:15:58;22.13;;;9.40;;
72621;SDS011;60665;53.506;9.582;2022-11-15T09:18:24;17.02;;;8.85;;
72621;SDS011;60665;53.506;9.582;2022-11-15T09:20:50;18.05;;;8.93;;
72621;SDS011;60665;53.506;9.582;2022-11-15T09:23:15;18.02;;;9.38;;
72621;SDS011;60665;53.506;9.582;2022-11-15T09:25:41;17.20;;;8.82;;
72621;SDS011;60665;53.506;9.582;2022-11-15T09:28:06;15.63;;;9.23;;
72621;SDS011;60665;53.506;9.582;2022-11-15T09:30:32;15.13;;;8.70;;
72621;SDS011;60665;53.506;9.582;2022-11-15T09:32:58;16.10;;;8.90;;
72621;SDS011;60665;53.506;9.582;2022-11-15T09:35:23;18.90;;;9.10;;
72621;SDS011;60665;53.506;9.582;2022-11-15T09:37:48;13.57;;;8.40;;
72621;SDS011;60665;53.506;9.582;2022-11-15T09:40:14;15.70;;;8.38;;
72621;SDS011;60665;53.506;9.582;2022-11-15T09:42:52;15.23;;;9.00;;
72621;SDS011;60665;53.506;9.582;2022-11-15T09:46:10;15.93;;;8.90;;
72621;SDS011;60665;53.506;9.582;2022-11-15T09:48:27;15.10;;;8.70;;
72621;SDS011;60665;53.506;9.582;2022-11-15T09:51:55;16.75;;;8.98;;
72621;SDS011;60665;53.506;9.582;2022-11-15T09:54:13;16.02;;;8.68;;
72621;SDS011;60665;53.506;9.582;2022-11-15T09:56:55;17.08;;;9.27;;
72621;SDS011;60665;53.506;9.582;2022-11-15T10:02:23;17.00;;;9.25;;
72621;SDS011;60665;53.506;9.582;2022-11-15T10:04:49;18.45;;;9.05;;
72621;SDS011;60665;53.506;9.582;2022-11-15T10:10:10;19.20;;;8.95;;
72621;SDS011;60665;53.506;9.582;2022-11-15T10:12:41;17.70;;;9.43;;
72621;SDS011;60665;53.506;9.582;2022-11-15T10:15:12;18.35;;;9.75;;
72621;SDS011;60665;53.506;9.582;2022-11-15T10:20:11;21.42;;;9.63;;
72621;SDS011;60665;53.506;9.582;2022-11-15T10:22:46;14.43;;;8.63;;
72621;SDS011;60665;53.506;9.582;2022-11-15T10:25:16;20.98;;;10.40;;
72621;SDS011;60665;53.506;9.582;2022-11-15T10:27:42;15.70;;;8.82;;
72621;SDS011;60665;53.506;9.582;2022-11-15T10:30:14;14.48;;;8.65;;
72621;SDS011;60665;53.506;9.582;2022-11-15T10:32:42;16.55;;;8.50;;
72621;SDS011;60665;53.506;9.582;2022-11-15T10:35:16;19.73;;;9.60;;
72621;SDS011;60665;53.506;9.582;2022-11-15T10:37:47;17.88;;;9.77;;
72621;SDS011;60665;53.506;9.582;2022-11-15T10:40:17;22.23;;;11.05;;
72621;SDS011;60665;53.506;9.582;2022-11-15T10:42:44;14.90;;;8.50;;
72621;SDS011;60665;53.506;9.582;2022-11-15T10:45:44;17.70;;;9.25;;
72621;SDS011;60665;53.506;9.582;2022-11-15T10:50:36;18.95;;;9.18;;
72621;SDS011;60665;53.506;9.582;2022-11-15T10:53:03;16.80;;;9.38;;
72621;SDS011;60665;53.506;9.582;2022-11-15T10:55:56;14.32;;;8.48;;
72621;SDS011;60665;53.506;9.582;2022-11-15T10:58:32;16.48;;;8.15;;
72621;SDS011;60665;53.506;9.582;2022-11-15T11:01:24;15.18;;;8.25;;
72621;SDS011;60665;53.506;9.582;2022-11-15T11:04:03;19.73;;;8.57;;
72621;SDS011;60665;53.506;9.582;2022-11-15T11:06:30;17.02;;;8.20;;
72621;SDS011;60665;53.506;9.582;2022-11-15T11:11:58;17.08;;;7.82;;
72621;SDS011;60665;53.506;9.582;2022-11-15T11:14:30;16.77;;;8.32;;
72621;SDS011;60665;53.506;9.582;2022-11-15T11:17:46;14.25;;;7.85;;
72621;SDS011;60665;53.506;9.582;2022-11-15T11:22:37;13.55;;;6.72;;
72621;SDS011;60665;53.506;9.582;2022-11-15T11:47:40;12.95;;;6.30;;
72621;SDS011;60665;53.506;9.582;2022-11-15T11:50:20;10.25;;;6.57;;
72621;SDS011;60665;53.506;9.582;2022-11-15T11:55:54;13.85;;;6.65;;
72621;SDS011;60665;53.506;9.582;2022-11-15T11:58:25;12.50;;;6.40;;
72621;SDS011;60665;53.506;9.582;2022-11-15T12:01:10;11.68;;;6.90;;
72621;SDS011;60665;53.506;9.582;2022-11-15T12:06:19;13.10;;;6.15;;
72621;SDS011;60665;53.506;9.582;2022-11-15T12:09:15;12.18;;;7.07;;
72621;SDS011;60665;53.506;9.582;2022-11-15T12:15:11;11.68;;;6.43;;
72621;SDS011;60665;53.506;9.582;2022-11-15T12:17:35;15.52;;;6.18;;
72621;SDS011;60665;53.506;9.582;2022-11-15T12:20:03;10.18;;;6.13;;
72621;SDS011;60665;53.506;9.582;2022-11-15T12:27:55;16.95;;;6.63;;
72621;SDS011;60665;53.506;9.582;2022-11-15T12:30:30;12.77;;;6.13;;
72621;SDS011;60665;53.506;9.582;2022-11-15T12:33:57;15.63;;;6.07;;
72621;SDS011;60665;53.506;9.582;2022-11-15T12:36:12;15.23;;;6.50;;
72621;SDS011;60665;53.506;9.582;2022-11-15T12:38:59;9.90;;;6.00;;
72621;SDS011;60665;53.506;9.582;2022-11-15T12:41:33;12.65;;;5.65;;
72621;SDS011;60665;53.506;9.582;2022-11-15T12:43:59;11.40;;;5.85;;
72621;SDS011;60665;53.506;9.582;2022-11-15T12:49:07;8.55;;;4.60;;
72621;SDS011;60665;53.506;9.582;2022-11-15T13:02:18;9.82;;;3.92;;
72621;SDS011;60665;53.506;9.582;2022-11-15T13:04:46;9.05;;;4.45;;
72621;SDS011;60665;53.506;9.582;2022-11-15T13:20:58;7.53;;;2.88;;
72621;SDS011;60665;53.506;9.582;2022-11-15T13:23:24;7.20;;;2.60;;
72621;SDS011;60665;53.506;9.582;2022-11-15T13:25:57;6.03;;;2.67;;
72621;SDS011;60665;53.506;9.582;2022-11-15T13:28:39;6.05;;;2.55;;
72621;SDS011;60665;53.506;9.582;2022-11-15T13:33:48;10.35;;;3.05;;
72621;SDS011;60665;53.506;9.582;2022-11-15T13:36:21;8.43;;;2.97;;
72621;SDS011;60665;53.506;9.582;2022-11-15T13:38:59;5.28;;;2.60;;
72621;SDS011;60665;53.506;9.582;2022-11-15T13:41:44;8.07;;;3.00;;
72621;SDS011;60665;53.506;9.582;2022-11-15T13:44:18;10.10;;;2.83;;
72621;SDS011;60665;53.506;9.582;2022-11-15T13:46:48;6.03;;;3.30;;
72621;SDS011;60665;53.506;9.582;2022-11-15T13:49:13;8.40;;;3.22;;
72621;SDS011;60665;53.506;9.582;2022-11-15T13:51:43;7.70;;;3.33;;
72621;SDS011;60665;53.506;9.582;2022-11-15T13:54:30;7.13;;;3.35;;
72621;SDS011;60665;53.506;9.582;2022-11-15T13:57:32;7.80;;;3.88;;
72621;SDS011;60665;53.506;9.582;2022-11-15T14:00:03;8.20;;;3.58;;
72621;SDS011;60665;53.506;9.582;2022-11-15T14:02:31;8.00;;;4.50;;
72621;SDS011;60665;53.506;9.582;2022-11-15T14:05:03;9.70;;;4.57;;
72621;SDS011;60665;53.506;9.582;2022-11-15T14:10:37;6.70;;;4.10;;
72621;SDS011;60665;53.506;9.582;2022-11-15T14:12:59;9.90;;;4.55;;
72621;SDS011;60665;53.506;9.582;2022-11-15T14:15:30;11.73;;;4.85;;
72621;SDS011;60665;53.506;9.582;2022-11-15T14:18:00;11.52;;;5.32;;
72621;SDS011;60665;53.506;9.582;2022-11-15T14:20:27;10.80;;;4.68;;
72621;SDS011;60665;53.506;9.582;2022-11-15T14:23:00;8.60;;;5.00;;
72621;SDS011;60665;53.506;9.582;2022-11-15T14:25:28;8.65;;;4.95;;
72621;SDS011;60665;53.506;9.582;2022-11-15T14:30:53;14.63;;;4.93;;
72621;SDS011;60665;53.506;9.582;2022-11-15T14:35:53;10.27;;;5.88;;
72621;SDS011;60665;53.506;9.582;2022-11-15T14:38:20;13.73;;;6.13;;
72621;SDS011;60665;53.506;9.582;2022-11-15T14:40:45;12.10;;;5.75;;
72621;SDS011;60665;53.506;9.582;2022-11-15T14:43:11;10.45;;;5.82;;
72621;SDS011;60665;53.506;9.582;2022-11-15T14:45:36;13.02;;;6.22;;
72621;SDS011;60665;53.506;9.582;2022-11-15T14:48:03;12.30;;;6.45;;
72621;SDS011;60665;53.506;9.582;2022-11-15T14:50:28;10.48;;;5.68;;
72621;SDS011;60665;53.506;9.582;2022-11-15T14:52:54;11.75;;;5.50;;
72621;SDS011;60665;53.506;9.582;2022-11-15T14:55:26;10.50;;;5.93;;
72621;SDS011;60665;53.506;9.582;2022-11-15T14:57:56;14.10;;;5.65;;
72621;SDS011;60665;53.506;9.582;2022-11-15T15:00:21;11.27;;;5.85;;
72621;SDS011;60665;53.506;9.582;2022-11-15T15:02:48;11.18;;;5.78;;
72621;SDS011;60665;53.506;9.582;2022-11-15T15:05:18;10.48;;;5.40;;
72621;SDS011;60665;53.506;9.582;2022-11-15T15:07:44;11.82;;;5.50;;
72621;SDS011;60665;53.506;9.582;2022-11-15T15:10:10;10.02;;;5.43;;
72621;SDS011;60665;53.506;9.582;2022-11-15T15:12:36;10.32;;;5.68;;
72621;SDS011;60665;53.506;9.582;2022-11-15T15:15:02;46.95;;;20.60;;
72621;SDS011;60665;53.506;9.582;2022-11-15T15:17:27;14.10;;;8.60;;
72621;SDS011;60665;53.506;9.582;2022-11-15T15:19:52;14.65;;;6.70;;
72621;SDS011;60665;53.506;9.582;2022-11-15T15:22:19;12.07;;;6.15;;
72621;SDS011;60665;53.506;9.582;2022-11-15T15:24:47;17.70;;;8.85;;
72621;SDS011;60665;53.506;9.582;2022-11-15T15:27:13;12.88;;;6.30;;
72621;SDS011;60665;53.506;9.582;2022-11-15T15:29:39;12.25;;;6.78;;
72621;SDS011;60665;53.506;9.582;2022-11-15T15:32:04;19.73;;;8.68;;
72621;SDS011;60665;53.506;9.582;2022-11-15T15:34:30;17.73;;;9.30;;
72621;SDS011;60665;53.506;9.582;2022-11-15T15:37:29;14.23;;;7.88;;
72621;SDS011;60665;53.506;9.582;2022-11-15T15:39:50;26.52;;;13.63;;
72621;SDS011;60665;53.506;9.582;2022-11-15T15:42:19;21.13;;;10.68;;
72621;SDS011;60665;53.506;9.582;2022-11-15T15:44:45;15.35;;;8.45;;
72621;SDS011;60665;53.506;9.582;2022-11-15T15:47:11;13.55;;;6.32;;
72621;SDS011;60665;53.506;9.582;2022-11-15T15:49:38;16.10;;;10.60;;
72621;SDS011;60665;53.506;9.582;2022-11-15T15:52:03;12.27;;;7.68;;
72621;SDS011;60665;53.506;9.582;2022-11-15T15:54:28;11.80;;;7.25;;
72621;SDS011;60665;53.506;9.582;2022-11-15T15:56:54;24.60;;;14.20;;
72621;SDS011;60665;53.506;9.582;2022-11-15T15:59:20;17.05;;;11.00;;
72621;SDS011;60665;53.506;9.582;2022-11-15T16:01:45;22.33;;;14.23;;
72621;SDS011;60665;53.506;9.582;2022-11-15T16:04:11;17.67;;;10.00;;
72621;SDS011;60665;53.506;9.582;2022-11-15T16:06:40;20.60;;;11.00;;
72621;SDS011;60665;53.506;9.582;2022-11-15T16:09:11;23.17;;;13.35;;
72621;SDS011;60665;53.506;9.582;2022-11-15T16:11:41;15.50;;;9.88;;
72621;SDS011;60665;53.506;9.582;2022-11-15T16:14:07;15.55;;;8.48;;
72621;SDS011;60665;53.506;9.582;2022-11-15T16:16:33;18.08;;;9.48;;
72621;SDS011;60665;53.506;9.582;2022-11-15T16:18:59;13.75;;;7.75;;
72621;SDS011;60665;53.506;9.582;2022-11-15T16:21:26;14.30;;;7.70;;
72621;SDS011;60665;53.506;9.582;2022-11-15T16:23:52;13.50;;;7.45;;
72621;SDS011;60665;53.506;9.582;2022-11-15T16:26:21;13.25;;;7.68;;
72621;SDS011;60665;53.506;9.582;2022-11-15T16:28:49;14.05;;;7.68;;
72621;SDS011;60665;53.506;9.582;2022-11-15T16:31:14;12.57;;;7.18;;
72621;SDS011;60665;53.506;9.582;2022-11-15T16:33:43;13.82;;;7.57;;
72621;SDS011;60665;53.506;9.582;2022-11-15T16:36:22;12.68;;;6.80;;
72621;SDS011;60665;53.506;9.582;2022-11-15T16:38:51;15.30;;;7.10;;
72621;SDS011;60665;53.506;9.582;2022-11-15T16:41:17;15.30;;;6.88;;
72621;SDS011;60665;53.506;9.582;2022-11-15T16:43:46;13.43;;;6.85;;
72621;SDS011;60665;53.506;9.582;2022-11-15T16:46:17;12.57;;;7.30;;
72621;SDS011;60665;53.506;9.582;2022-11-15T16:48:44;20.13;;;11.50;;
72621;SDS011;60665;53.506;9.582;2022-11-15T16:51:10;17.45;;;9.55;;
72621;SDS011;60665;53.506;9.582;2022-11-15T16:53:35;22.20;;;10.35;;